sensor_id;sensor_type;location;lat;lon;timestamp;pressure;altitude;pressure_sealevel;temperature
11424;BMP180;5768;51.476;7.210;2023-05-07T00:00:32;100310.00;;;18.80
11424;BMP180;5768;51.476;7.210;2023-05-07T00:05:35;100308.00;;;18.80
11424;BMP180;5768;51.476;7.210;2023-05-07T00:10:40;100309.00;;;18.80
11424;BMP180;5768;51.476;7.210;2023-05-07T00:15:44;100314.00;;;18.80
11424;BMP180;5768;51.476;7.210;2023-05-07T00:20:47;100315.00;;;18.80
11424;BMP180;5768;51.476;7.210;2023-05-07T00:25:49;100325.00;;;18.80
11424;BMP180;5768;51.476;7.210;2023-05-07T00:30:53;100320.00;;;18.80
11424;BMP180;5768;51.476;7.210;2023-05-07T00:35:55;100316.00;;;18.80
11424;BMP180;5768;51.476;7.210;2023-05-07T00:40:58;100310.00;;;18.80
11424;BMP180;5768;51.476;7.210;2023-05-07T00:46:01;100307.00;;;18.70
11424;BMP180;5768;51.476;7.210;2023-05-07T00:51:04;100305.00;;;18.70
11424;BMP180;5768;51.476;7.210;2023-05-07T00:56:07;100297.00;;;18.70
11424;BMP180;5768;51.476;7.210;2023-05-07T01:01:10;100296.00;;;18.60
11424;BMP180;5768;51.476;7.210;2023-05-07T01:06:13;100285.00;;;18.60
11424;BMP180;5768;51.476;7.210;2023-05-07T01:11:18;100295.00;;;18.60
11424;BMP180;5768;51.476;7.210;2023-05-07T01:16:22;100296.00;;;18.60
11424;BMP180;5768;51.476;7.210;2023-05-07T01:21:26;100290.00;;;18.60
11424;BMP180;5768;51.476;7.210;2023-05-07T01:26:30;100295.00;;;18.60
11424;BMP180;5768;51.476;7.210;2023-05-07T01:31:34;100303.00;;;18.60
11424;BMP180;5768;51.476;7.210;2023-05-07T01:36:38;100292.00;;;18.60
11424;BMP180;5768;51.476;7.210;2023-05-07T01:41:43;100296.00;;;18.60
11424;BMP180;5768;51.476;7.210;2023-05-07T01:46:47;100296.00;;;18.60
11424;BMP180;5768;51.476;7.210;2023-05-07T01:51:50;100294.00;;;18.60
11424;BMP180;5768;51.476;7.210;2023-05-07T01:56:55;100294.00;;;18.60
11424;BMP180;5768;51.476;7.210;2023-05-07T02:01:58;100285.00;;;18.60
11424;BMP180;5768;51.476;7.210;2023-05-07T02:07:00;100288.00;;;18.50
11424;BMP180;5768;51.476;7.210;2023-05-07T02:12:04;100288.00;;;18.50
11424;BMP180;5768;51.476;7.210;2023-05-07T02:17:07;100289.00;;;18.40
11424;BMP180;5768;51.476;7.210;2023-05-07T02:22:10;100288.00;;;18.40
11424;BMP180;5768;51.476;7.210;2023-05-07T02:27:14;100282.00;;;18.40
11424;BMP180;5768;51.476;7.210;2023-05-07T02:32:16;100284.00;;;18.30
11424;BMP180;5768;51.476;7.210;2023-05-07T02:37:18;100274.00;;;18.30
11424;BMP180;5768;51.476;7.210;2023-05-07T02:42:22;100271.00;;;18.30
11424;BMP180;5768;51.476;7.210;2023-05-07T02:47:24;100273.00;;;18.20
11424;BMP180;5768;51.476;7.210;2023-05-07T02:52:27;100277.00;;;18.20
11424;BMP180;5768;51.476;7.210;2023-05-07T02:57:31;100284.00;;;18.10
11424;BMP180;5768;51.476;7.210;2023-05-07T03:02:33;100284.00;;;18.10
11424;BMP180;5768;51.476;7.210;2023-05-07T03:07:35;100275.00;;;18.00
11424;BMP180;5768;51.476;7.210;2023-05-07T03:12:40;100274.00;;;18.00
11424;BMP180;5768;51.476;7.210;2023-05-07T03:17:42;100280.00;;;18.00
11424;BMP180;5768;51.476;7.210;2023-05-07T03:22:44;100281.00;;;18.00
11424;BMP180;5768;51.476;7.210;2023-05-07T03:27:48;100282.00;;;18.00
11424;BMP180;5768;51.476;7.210;2023-05-07T03:32:50;100287.00;;;18.00
11424;BMP180;5768;51.476;7.210;2023-05-07T03:37:52;100291.00;;;18.00
11424;BMP180;5768;51.476;7.210;2023-05-07T03:42:56;100287.00;;;18.00
11424;BMP180;5768;51.476;7.210;2023-05-07T03:47:58;100283.00;;;17.90
11424;BMP180;5768;51.476;7.210;2023-05-07T03:53:00;100287.00;;;17.90
11424;BMP180;5768;51.476;7.210;2023-05-07T03:58:04;100285.00;;;17.80
11424;BMP180;5768;51.476;7.210;2023-05-07T04:03:06;100288.00;;;17.90
11424;BMP180;5768;51.476;7.210;2023-05-07T04:08:09;100282.00;;;17.90
11424;BMP180;5768;51.476;7.210;2023-05-07T04:13:13;100286.00;;;17.90
11424;BMP180;5768;51.476;7.210;2023-05-07T04:18:15;100297.00;;;17.90
11424;BMP180;5768;51.476;7.210;2023-05-07T04:23:17;100298.00;;;17.90
11424;BMP180;5768;51.476;7.210;2023-05-07T04:28:21;100294.00;;;17.90
11424;BMP180;5768;51.476;7.210;2023-05-07T04:33:23;100295.00;;;18.00
11424;BMP180;5768;51.476;7.210;2023-05-07T04:38:25;100297.00;;;18.00
11424;BMP180;5768;51.476;7.210;2023-05-07T04:43:30;100310.00;;;18.10
11424;BMP180;5768;51.476;7.210;2023-05-07T04:48:32;100306.00;;;18.10
11424;BMP180;5768;51.476;7.210;2023-05-07T04:53:34;100307.00;;;18.20
11424;BMP180;5768;51.476;7.210;2023-05-07T04:58:38;100310.00;;;18.30
11424;BMP180;5768;51.476;7.210;2023-05-07T05:03:40;100316.00;;;18.40
11424;BMP180;5768;51.476;7.210;2023-05-07T05:08:42;100315.00;;;18.40
11424;BMP180;5768;51.476;7.210;2023-05-07T05:13:46;100324.00;;;18.50
11424;BMP180;5768;51.476;7.210;2023-05-07T05:18:49;100326.00;;;18.60
11424;BMP180;5768;51.476;7.210;2023-05-07T05:23:52;100326.00;;;18.60
11424;BMP180;5768;51.476;7.210;2023-05-07T05:28:56;100324.00;;;18.70
11424;BMP180;5768;51.476;7.210;2023-05-07T05:33:58;100326.00;;;18.80
11424;BMP180;5768;51.476;7.210;2023-05-07T05:39:01;100331.00;;;18.90
11424;BMP180;5768;51.476;7.210;2023-05-07T05:44:04;100333.00;;;19.00
11424;BMP180;5768;51.476;7.210;2023-05-07T05:49:07;100332.00;;;19.20
11424;BMP180;5768;51.476;7.210;2023-05-07T05:54:09;100331.00;;;19.40
11424;BMP180;5768;51.476;7.210;2023-05-07T05:59:13;100335.00;;;19.50
11424;BMP180;5768;51.476;7.210;2023-05-07T06:04:15;100335.00;;;19.70
11424;BMP180;5768;51.476;7.210;2023-05-07T06:09:19;100341.00;;;20.00
11424;BMP180;5768;51.476;7.210;2023-05-07T06:14:23;100346.00;;;20.20
11424;BMP180;5768;51.476;7.210;2023-05-07T06:19:25;100337.00;;;20.40
11424;BMP180;5768;51.476;7.210;2023-05-07T06:24:29;100352.00;;;20.60
11424;BMP180;5768;51.476;7.210;2023-05-07T06:29:34;100343.00;;;20.80
11424;BMP180;5768;51.476;7.210;2023-05-07T06:34:37;100365.00;;;20.90
11424;BMP180;5768;51.476;7.210;2023-05-07T06:39:39;100370.00;;;21.10
11424;BMP180;5768;51.476;7.210;2023-05-07T06:44:43;100371.00;;;21.20
11424;BMP180;5768;51.476;7.210;2023-05-07T06:49:45;100375.00;;;21.30
11424;BMP180;5768;51.476;7.210;2023-05-07T06:54:47;100389.00;;;21.40
11424;BMP180;5768;51.476;7.210;2023-05-07T06:59:51;100375.00;;;21.60
11424;BMP180;5768;51.476;7.210;2023-05-07T07:04:53;100367.00;;;21.70
11424;BMP180;5768;51.476;7.210;2023-05-07T07:09:56;100373.00;;;21.90
11424;BMP180;5768;51.476;7.210;2023-05-07T07:14:59;100369.00;;;22.00
11424;BMP180;5768;51.476;7.210;2023-05-07T07:20:03;100366.00;;;22.20
11424;BMP180;5768;51.476;7.210;2023-05-07T07:25:06;100364.00;;;22.20
11424;BMP180;5768;51.476;7.210;2023-05-07T07:30:11;100371.00;;;22.30
11424;BMP180;5768;51.476;7.210;2023-05-07T07:35:13;100374.00;;;22.40
11424;BMP180;5768;51.476;7.210;2023-05-07T07:40:15;100377.00;;;22.50
11424;BMP180;5768;51.476;7.210;2023-05-07T07:45:19;100384.00;;;22.70
11424;BMP180;5768;51.476;7.210;2023-05-07T07:50:22;100376.00;;;22.90
11424;BMP180;5768;51.476;7.210;2023-05-07T07:55:26;100389.00;;;23.20
11424;BMP180;5768;51.476;7.210;2023-05-07T08:00:30;100395.00;;;23.40
11424;BMP180;5768;51.476;7.210;2023-05-07T08:05:32;100401.00;;;23.50
11424;BMP180;5768;51.476;7.210;2023-05-07T08:10:34;100397.00;;;23.40
11424;BMP180;5768;51.476;7.210;2023-05-07T08:15:40;100411.00;;;23.50
11424;BMP180;5768;51.476;7.210;2023-05-07T08:20:42;100403.00;;;23.60
11424;BMP180;5768;51.476;7.210;2023-05-07T08:25:45;100405.00;;;23.80
11424;BMP180;5768;51.476;7.210;2023-05-07T08:30:49;100404.00;;;24.10
11424;BMP180;5768;51.476;7.210;2023-05-07T08:35:51;100399.00;;;24.30
11424;BMP180;5768;51.476;7.210;2023-05-07T08:40:53;100404.00;;;24.50
11424;BMP180;5768;51.476;7.210;2023-05-07T08:46:00;100409.00;;;24.70
11424;BMP180;5768;51.476;7.210;2023-05-07T08:51:03;100412.00;;;24.90
11424;BMP180;5768;51.476;7.210;2023-05-07T08:56:07;100412.00;;;25.30
11424;BMP180;5768;51.476;7.210;2023-05-07T09:01:14;100414.00;;;25.30
11424;BMP180;5768;51.476;7.210;2023-05-07T09:06:17;100408.00;;;25.20
11424;BMP180;5768;51.476;7.210;2023-05-07T09:11:22;100408.00;;;25.10
11424;BMP180;5768;51.476;7.210;2023-05-07T09:16:28;100399.00;;;25.00
11424;BMP180;5768;51.476;7.210;2023-05-07T09:21:30;100406.00;;;24.90
11424;BMP180;5768;51.476;7.210;2023-05-07T09:26:32;100401.00;;;25.00
11424;BMP180;5768;51.476;7.210;2023-05-07T09:31:38;100404.00;;;25.30
11424;BMP180;5768;51.476;7.210;2023-05-07T09:36:41;100403.00;;;25.80
11424;BMP180;5768;51.476;7.210;2023-05-07T09:41:44;100413.00;;;26.00
11424;BMP180;5768;51.476;7.210;2023-05-07T09:46:54;100402.00;;;26.10
11424;BMP180;5768;51.476;7.210;2023-05-07T09:52:00;100412.00;;;26.50
11424;BMP180;5768;51.476;7.210;2023-05-07T09:57:02;100409.00;;;26.70
11424;BMP180;5768;51.476;7.210;2023-05-07T10:02:09;100408.00;;;26.80
11424;BMP180;5768;51.476;7.210;2023-05-07T10:07:15;100407.00;;;27.00
11424;BMP180;5768;51.476;7.210;2023-05-07T10:12:19;100412.00;;;27.20
11424;BMP180;5768;51.476;7.210;2023-05-07T10:17:23;100405.00;;;27.50
11424;BMP180;5768;51.476;7.210;2023-05-07T10:22:27;100401.00;;;27.60
11424;BMP180;5768;51.476;7.210;2023-05-07T10:27:30;100409.00;;;27.70
11424;BMP180;5768;51.476;7.210;2023-05-07T10:32:40;100400.00;;;27.60
11424;BMP180;5768;51.476;7.210;2023-05-07T10:37:45;100407.00;;;27.30
11424;BMP180;5768;51.476;7.210;2023-05-07T10:42:55;100403.00;;;27.30
11424;BMP180;5768;51.476;7.210;2023-05-07T10:48:10;100402.00;;;27.50
11424;BMP180;5768;51.476;7.210;2023-05-07T10:53:25;100399.00;;;27.80
11424;BMP180;5768;51.476;7.210;2023-05-07T10:58:30;100402.00;;;28.10
11424;BMP180;5768;51.476;7.210;2023-05-07T11:03:35;100402.00;;;28.30
11424;BMP180;5768;51.476;7.210;2023-05-07T11:08:54;100400.00;;;28.30
11424;BMP180;5768;51.476;7.210;2023-05-07T11:13:56;100400.00;;;28.50
11424;BMP180;5768;51.476;7.210;2023-05-07T11:19:00;100398.00;;;28.70
11424;BMP180;5768;51.476;7.210;2023-05-07T11:24:04;100397.00;;;28.90
11424;BMP180;5768;51.476;7.210;2023-05-07T11:29:11;100403.00;;;29.20
11424;BMP180;5768;51.476;7.210;2023-05-07T11:34:20;100413.00;;;29.30
11424;BMP180;5768;51.476;7.210;2023-05-07T11:39:28;100407.00;;;29.20
11424;BMP180;5768;51.476;7.210;2023-05-07T11:44:44;100403.00;;;29.30
11424;BMP180;5768;51.476;7.210;2023-05-07T11:49:50;100407.00;;;29.50
11424;BMP180;5768;51.476;7.210;2023-05-07T11:54:55;100406.00;;;29.70
11424;BMP180;5768;51.476;7.210;2023-05-07T11:59:58;100404.00;;;29.80
11424;BMP180;5768;51.476;7.210;2023-05-07T12:05:04;100405.00;;;30.00
11424;BMP180;5768;51.476;7.210;2023-05-07T12:10:08;100409.00;;;30.10
11424;BMP180;5768;51.476;7.210;2023-05-07T12:15:16;100406.00;;;30.20
11424;BMP180;5768;51.476;7.210;2023-05-07T12:20:20;100413.00;;;30.10
11424;BMP180;5768;51.476;7.210;2023-05-07T12:25:23;100413.00;;;30.10
11424;BMP180;5768;51.476;7.210;2023-05-07T12:30:25;100406.00;;;30.20
11424;BMP180;5768;51.476;7.210;2023-05-07T12:35:30;100418.00;;;30.10
11424;BMP180;5768;51.476;7.210;2023-05-07T12:40:37;100417.00;;;29.70
11424;BMP180;5768;51.476;7.210;2023-05-07T12:45:42;100418.00;;;29.10
11424;BMP180;5768;51.476;7.210;2023-05-07T12:50:49;100422.00;;;28.60
11424;BMP180;5768;51.476;7.210;2023-05-07T12:55:54;100431.00;;;28.10
11424;BMP180;5768;51.476;7.210;2023-05-07T13:00:59;100434.00;;;27.90
11424;BMP180;5768;51.476;7.210;2023-05-07T13:06:04;100430.00;;;27.80
11424;BMP180;5768;51.476;7.210;2023-05-07T13:11:08;100436.00;;;27.50
11424;BMP180;5768;51.476;7.210;2023-05-07T13:16:11;100428.00;;;27.20
11424;BMP180;5768;51.476;7.210;2023-05-07T13:21:15;100425.00;;;27.10
11424;BMP180;5768;51.476;7.210;2023-05-07T13:26:17;100435.00;;;26.80
11424;BMP180;5768;51.476;7.210;2023-05-07T13:31:19;100433.00;;;26.70
11424;BMP180;5768;51.476;7.210;2023-05-07T13:36:23;100423.00;;;26.40
11424;BMP180;5768;51.476;7.210;2023-05-07T13:41:26;100429.00;;;26.30
11424;BMP180;5768;51.476;7.210;2023-05-07T13:46:28;100436.00;;;26.10
11424;BMP180;5768;51.476;7.210;2023-05-07T13:51:32;100437.00;;;25.90
11424;BMP180;5768;51.476;7.210;2023-05-07T13:56:35;100446.00;;;25.80
11424;BMP180;5768;51.476;7.210;2023-05-07T14:01:37;100454.00;;;25.80
11424;BMP180;5768;51.476;7.210;2023-05-07T14:06:41;100437.00;;;25.90
11424;BMP180;5768;51.476;7.210;2023-05-07T14:11:43;100442.00;;;26.10
11424;BMP180;5768;51.476;7.210;2023-05-07T14:16:49;100444.00;;;26.20
11424;BMP180;5768;51.476;7.210;2023-05-07T14:21:53;100454.00;;;26.10
11424;BMP180;5768;51.476;7.210;2023-05-07T14:26:55;100450.00;;;26.10
11424;BMP180;5768;51.476;7.210;2023-05-07T14:31:58;100452.00;;;26.00
11424;BMP180;5768;51.476;7.210;2023-05-07T14:37:01;100453.00;;;25.90
11424;BMP180;5768;51.476;7.210;2023-05-07T14:42:04;100456.00;;;25.70
11424;BMP180;5768;51.476;7.210;2023-05-07T14:47:06;100453.00;;;25.70
11424;BMP180;5768;51.476;7.210;2023-05-07T14:52:10;100448.00;;;25.60
11424;BMP180;5768;51.476;7.210;2023-05-07T14:57:14;100447.00;;;25.50
11424;BMP180;5768;51.476;7.210;2023-05-07T15:02:17;100447.00;;;25.50
11424;BMP180;5768;51.476;7.210;2023-05-07T15:07:20;100452.00;;;25.40
11424;BMP180;5768;51.476;7.210;2023-05-07T15:12:22;100458.00;;;25.40
11424;BMP180;5768;51.476;7.210;2023-05-07T15:17:25;100464.00;;;25.40
11424;BMP180;5768;51.476;7.210;2023-05-07T15:22:31;100464.00;;;25.40
11424;BMP180;5768;51.476;7.210;2023-05-07T15:27:34;100476.00;;;25.40
11424;BMP180;5768;51.476;7.210;2023-05-07T15:32:36;100477.00;;;25.40
11424;BMP180;5768;51.476;7.210;2023-05-07T15:37:40;100471.00;;;25.60
11424;BMP180;5768;51.476;7.210;2023-05-07T15:42:44;100479.00;;;25.80
11424;BMP180;5768;51.476;7.210;2023-05-07T15:47:47;100491.00;;;25.90
11424;BMP180;5768;51.476;7.210;2023-05-07T15:52:51;100484.00;;;26.00
11424;BMP180;5768;51.476;7.210;2023-05-07T15:57:53;100483.00;;;26.10
11424;BMP180;5768;51.476;7.210;2023-05-07T16:02:57;100483.00;;;26.20
11424;BMP180;5768;51.476;7.210;2023-05-07T16:08:00;100492.00;;;26.20
11424;BMP180;5768;51.476;7.210;2023-05-07T16:13:03;100479.00;;;26.20
11424;BMP180;5768;51.476;7.210;2023-05-07T16:18:06;100467.00;;;26.20
11424;BMP180;5768;51.476;7.210;2023-05-07T16:23:10;100472.00;;;26.20
11424;BMP180;5768;51.476;7.210;2023-05-07T16:28:13;100465.00;;;26.20
11424;BMP180;5768;51.476;7.210;2023-05-07T16:33:15;100469.00;;;26.20
11424;BMP180;5768;51.476;7.210;2023-05-07T16:38:19;100465.00;;;26.10
11424;BMP180;5768;51.476;7.210;2023-05-07T16:43:21;100476.00;;;25.90
11424;BMP180;5768;51.476;7.210;2023-05-07T16:48:25;100478.00;;;25.60
11424;BMP180;5768;51.476;7.210;2023-05-07T16:53:29;100469.00;;;25.30
11424;BMP180;5768;51.476;7.210;2023-05-07T16:58:31;100465.00;;;25.10
11424;BMP180;5768;51.476;7.210;2023-05-07T17:03:34;100464.00;;;24.90
11424;BMP180;5768;51.476;7.210;2023-05-07T17:08:37;100457.00;;;24.80
11424;BMP180;5768;51.476;7.210;2023-05-07T17:13:40;100466.00;;;24.70
11424;BMP180;5768;51.476;7.210;2023-05-07T17:18:42;100475.00;;;24.60
11424;BMP180;5768;51.476;7.210;2023-05-07T17:23:45;100480.00;;;24.40
11424;BMP180;5768;51.476;7.210;2023-05-07T17:28:48;100489.00;;;24.30
11424;BMP180;5768;51.476;7.210;2023-05-07T17:33:54;100500.00;;;24.10
11424;BMP180;5768;51.476;7.210;2023-05-07T17:38:57;100506.00;;;24.00
11424;BMP180;5768;51.476;7.210;2023-05-07T17:44:00;100509.00;;;23.90
11424;BMP180;5768;51.476;7.210;2023-05-07T17:49:02;100516.00;;;23.80
11424;BMP180;5768;51.476;7.210;2023-05-07T17:54:06;100531.00;;;23.70
11424;BMP180;5768;51.476;7.210;2023-05-07T17:59:08;100531.00;;;23.50
11424;BMP180;5768;51.476;7.210;2023-05-07T18:04:11;100536.00;;;23.40
11424;BMP180;5768;51.476;7.210;2023-05-07T18:09:15;100530.00;;;23.30
11424;BMP180;5768;51.476;7.210;2023-05-07T18:14:17;100531.00;;;23.20
11424;BMP180;5768;51.476;7.210;2023-05-07T18:19:23;100541.00;;;23.10
11424;BMP180;5768;51.476;7.210;2023-05-07T18:24:28;100550.00;;;23.00
11424;BMP180;5768;51.476;7.210;2023-05-07T18:29:30;100559.00;;;22.90
11424;BMP180;5768;51.476;7.210;2023-05-07T18:34:33;100567.00;;;22.80
11424;BMP180;5768;51.476;7.210;2023-05-07T18:39:37;100567.00;;;22.70
11424;BMP180;5768;51.476;7.210;2023-05-07T18:44:39;100574.00;;;22.60
11424;BMP180;5768;51.476;7.210;2023-05-07T18:49:41;100576.00;;;22.50
11424;BMP180;5768;51.476;7.210;2023-05-07T18:54:45;100571.00;;;22.40
11424;BMP180;5768;51.476;7.210;2023-05-07T18:59:47;100576.00;;;22.30
11424;BMP180;5768;51.476;7.210;2023-05-07T19:04:49;100581.00;;;22.30
11424;BMP180;5768;51.476;7.210;2023-05-07T19:09:53;100593.00;;;22.10
11424;BMP180;5768;51.476;7.210;2023-05-07T19:14:55;100600.00;;;22.10
11424;BMP180;5768;51.476;7.210;2023-05-07T19:19:57;100599.00;;;22.00
11424;BMP180;5768;51.476;7.210;2023-05-07T19:25:01;100596.00;;;21.90
11424;BMP180;5768;51.476;7.210;2023-05-07T19:30:06;100611.00;;;21.80
11424;BMP180;5768;51.476;7.210;2023-05-07T19:35:09;100614.00;;;21.70
11424;BMP180;5768;51.476;7.210;2023-05-07T19:40:13;100619.00;;;21.70
11424;BMP180;5768;51.476;7.210;2023-05-07T19:45:16;100618.00;;;21.60
11424;BMP180;5768;51.476;7.210;2023-05-07T19:50:19;100624.00;;;21.50
11424;BMP180;5768;51.476;7.210;2023-05-07T19:55:23;100630.00;;;21.50
11424;BMP180;5768;51.476;7.210;2023-05-07T20:00:25;100624.00;;;21.40
11424;BMP180;5768;51.476;7.210;2023-05-07T20:05:31;100634.00;;;21.30
11424;BMP180;5768;51.476;7.210;2023-05-07T20:10:35;100633.00;;;21.20
11424;BMP180;5768;51.476;7.210;2023-05-07T20:15:38;100644.00;;;21.20
11424;BMP180;5768;51.476;7.210;2023-05-07T20:20:40;100639.00;;;21.10
11424;BMP180;5768;51.476;7.210;2023-05-07T20:25:46;100642.00;;;21.00
11424;BMP180;5768;51.476;7.210;2023-05-07T20:30:50;100646.00;;;21.00
11424;BMP180;5768;51.476;7.210;2023-05-07T20:35:52;100658.00;;;21.00
11424;BMP180;5768;51.476;7.210;2023-05-07T20:40:56;100658.00;;;20.90
11424;BMP180;5768;51.476;7.210;2023-05-07T20:45:58;100663.00;;;20.90
11424;BMP180;5768;51.476;7.210;2023-05-07T20:51:02;100666.00;;;20.80
11424;BMP180;5768;51.476;7.210;2023-05-07T20:56:06;100674.00;;;20.80
11424;BMP180;5768;51.476;7.210;2023-05-07T21:01:08;100675.00;;;20.80
11424;BMP180;5768;51.476;7.210;2023-05-07T21:06:11;100675.00;;;20.70
11424;BMP180;5768;51.476;7.210;2023-05-07T21:11:14;100687.00;;;20.70
11424;BMP180;5768;51.476;7.210;2023-05-07T21:16:16;100693.00;;;20.60
11424;BMP180;5768;51.476;7.210;2023-05-07T21:21:18;100694.00;;;20.60
11424;BMP180;5768;51.476;7.210;2023-05-07T21:26:22;100695.00;;;20.50
11424;BMP180;5768;51.476;7.210;2023-05-07T21:31:26;100696.00;;;20.50
11424;BMP180;5768;51.476;7.210;2023-05-07T21:36:28;100698.00;;;20.40
11424;BMP180;5768;51.476;7.210;2023-05-07T21:41:32;100689.00;;;20.40
11424;BMP180;5768;51.476;7.210;2023-05-07T21:46:34;100684.00;;;20.30
11424;BMP180;5768;51.476;7.210;2023-05-07T21:51:37;100682.00;;;20.30
11424;BMP180;5768;51.476;7.210;2023-05-07T21:56:40;100677.00;;;20.20
11424;BMP180;5768;51.476;7.210;2023-05-07T22:01:42;100679.00;;;20.10
11424;BMP180;5768;51.476;7.210;2023-05-07T22:06:45;100673.00;;;20.10
11424;BMP180;5768;51.476;7.210;2023-05-07T22:11:49;100678.00;;;20.00
11424;BMP180;5768;51.476;7.210;2023-05-07T22:16:51;100683.00;;;19.90
11424;BMP180;5768;51.476;7.210;2023-05-07T22:21:54;100682.00;;;19.80
11424;BMP180;5768;51.476;7.210;2023-05-07T22:26:57;100682.00;;;19.80
11424;BMP180;5768;51.476;7.210;2023-05-07T22:32:00;100692.00;;;19.70
11424;BMP180;5768;51.476;7.210;2023-05-07T22:37:02;100689.00;;;19.70
11424;BMP180;5768;51.476;7.210;2023-05-07T22:42:05;100691.00;;;19.60
11424;BMP180;5768;51.476;7.210;2023-05-07T22:47:08;100686.00;;;19.60
11424;BMP180;5768;51.476;7.210;2023-05-07T22:52:10;100695.00;;;19.60
11424;BMP180;5768;51.476;7.210;2023-05-07T22:57:14;100699.00;;;19.50
11424;BMP180;5768;51.476;7.210;2023-05-07T23:02:16;100697.00;;;19.50
11424;BMP180;5768;51.476;7.210;2023-05-07T23:07:18;100692.00;;;19.50
11424;BMP180;5768;51.476;7.210;2023-05-07T23:12:21;100692.00;;;19.40
11424;BMP180;5768;51.476;7.210;2023-05-07T23:17:24;100690.00;;;19.40
11424;BMP180;5768;51.476;7.210;2023-05-07T23:22:26;100690.00;;;19.30
11424;BMP180;5768;51.476;7.210;2023-05-07T23:27:29;100689.00;;;19.30
11424;BMP180;5768;51.476;7.210;2023-05-07T23:32:32;100699.00;;;19.20
11424;BMP180;5768;51.476;7.210;2023-05-07T23:37:34;100698.00;;;19.20
11424;BMP180;5768;51.476;7.210;2023-05-07T23:42:38;100698.00;;;19.20
11424;BMP180;5768;51.476;7.210;2023-05-07T23:47:40;100691.00;;;19.10
11424;BMP180;5768;51.476;7.210;2023-05-07T23:52:43;100704.00;;;19.10
11424;BMP180;5768;51.476;7.210;2023-05-07T23:57:46;100700.00;;;19.10
